createdAt,value
2019-05-06T00:01:07.557Z,7.70
2019-05-06T00:03:36.043Z,7.80
2019-05-06T00:06:04.856Z,7.80
2019-05-06T00:08:34.571Z,7.80
2019-05-06T00:11:04.881Z,7.60
2019-05-06T00:13:34.327Z,7.60
2019-05-06T00:16:03.943Z,7.50
2019-05-06T00:18:34.212Z,7.30
2019-05-06T00:21:04.602Z,7.20
2019-05-06T00:23:37.957Z,7.30
2019-05-06T00:26:06.923Z,7.20
2019-05-06T00:28:39.995Z,7.00
2019-05-06T00:31:16.361Z,7.00
2019-05-06T00:33:44.376Z,7.00
2019-05-06T00:36:14.146Z,7.00
2019-05-06T00:38:44.852Z,6.90
2019-05-06T00:41:36.327Z,6.90
2019-05-06T00:44:04.018Z,6.90
2019-05-06T00:46:34.438Z,6.80
2019-05-06T00:49:03.835Z,6.70
2019-05-06T00:51:33.849Z,6.70
2019-05-06T00:54:04.707Z,6.70
2019-05-06T00:56:34.080Z,6.90
2019-05-06T00:59:03.681Z,7.00
2019-05-06T01:01:34.233Z,7.00
2019-05-06T01:04:04.558Z,6.70
2019-05-06T01:06:34.489Z,6.60
2019-05-06T01:09:06.521Z,6.50
2019-05-06T01:11:35.240Z,6.50
2019-05-06T01:14:08.747Z,6.40
2019-05-06T01:16:37.562Z,6.30
2019-05-06T01:19:06.458Z,6.40
2019-05-06T01:21:35.149Z,6.40
2019-05-06T01:24:04.100Z,6.30
2019-05-06T01:26:33.740Z,6.10
2019-05-06T01:29:03.958Z,6.00
2019-05-06T01:31:42.008Z,5.90
2019-05-06T01:34:04.291Z,5.90
2019-05-06T01:36:34.291Z,5.80
2019-05-06T01:39:24.537Z,5.80
2019-05-06T01:42:13.736Z,5.90
2019-05-06T01:44:41.736Z,6.00
2019-05-06T01:47:10.322Z,6.10
2019-05-06T01:49:38.886Z,5.90
2019-05-06T01:52:07.589Z,5.90
2019-05-06T01:54:35.983Z,5.80
2019-05-06T01:57:04.740Z,5.90
2019-05-06T01:59:34.195Z,5.90
2019-05-06T02:02:04.289Z,5.90
2019-05-06T02:04:33.836Z,5.90
2019-05-06T02:07:03.810Z,5.80
2019-05-06T02:09:34.259Z,6.00
2019-05-06T02:12:04.586Z,5.90
2019-05-06T02:14:34.177Z,5.90
2019-05-06T02:17:03.623Z,5.90
2019-05-06T02:19:34.648Z,5.70
2019-05-06T02:22:06.939Z,5.70
2019-05-06T02:24:39.865Z,5.70
2019-05-06T02:27:08.263Z,5.60
2019-05-06T02:29:47.423Z,5.50
2019-05-06T02:32:26.058Z,5.60
2019-05-06T02:34:55.447Z,5.50
2019-05-06T02:37:27.993Z,5.40
2019-05-06T02:39:56.469Z,5.40
2019-05-06T02:42:24.915Z,5.50
2019-05-06T02:44:54.336Z,5.40
2019-05-06T02:47:43.106Z,5.30
2019-05-06T02:50:13.514Z,5.30
2019-05-06T02:52:44.036Z,5.20
2019-05-06T02:55:12.983Z,5.20
2019-05-06T02:57:43.995Z,5.30
2019-05-06T03:00:17.581Z,5.30
2019-05-06T03:02:48.165Z,5.40
2019-05-06T03:05:17.050Z,5.50
2019-05-06T03:07:45.623Z,5.50
2019-05-06T03:10:15.352Z,5.30
2019-05-06T03:12:44.305Z,5.40
2019-05-06T03:15:16.588Z,5.40
2019-05-06T03:17:43.797Z,5.50
2019-05-06T03:20:15.902Z,5.60
2019-05-06T03:22:57.625Z,5.60
2019-05-06T03:25:27.907Z,5.50
2019-05-06T03:27:56.325Z,5.50
2019-05-06T03:30:25.835Z,5.50
2019-05-06T03:33:34.009Z,5.60
2019-05-06T03:35:36.232Z,5.60
2019-05-06T03:37:54.863Z,5.50
2019-05-06T03:40:23.368Z,5.50
2019-05-06T03:42:53.956Z,5.50
2019-05-06T03:45:23.802Z,5.50
2019-05-06T03:47:57.498Z,5.40
2019-05-06T03:50:25.957Z,5.50
2019-05-06T03:52:56.452Z,5.50
2019-05-06T03:55:26.724Z,5.40
2019-05-06T03:57:56.673Z,5.30
2019-05-06T04:00:25.511Z,5.30
2019-05-06T04:02:54.600Z,5.30
2019-05-06T04:05:24.020Z,5.10
2019-05-06T04:07:54.239Z,5.10
2019-05-06T04:10:23.051Z,5.10
2019-05-06T04:12:53.503Z,5.10
2019-05-06T04:15:26.761Z,5.00
2019-05-06T04:18:15.353Z,4.90
2019-05-06T04:20:48.778Z,5.00
2019-05-06T04:23:39.045Z,4.80
2019-05-06T04:26:13.435Z,4.90
2019-05-06T04:28:43.563Z,4.80
2019-05-06T04:31:13.240Z,4.80
2019-05-06T04:33:46.220Z,4.80
2019-05-06T04:36:13.131Z,4.70
2019-05-06T04:38:43.420Z,4.70
2019-05-06T04:41:13.630Z,4.80
2019-05-06T04:43:43.823Z,4.90
2019-05-06T04:46:13.576Z,5.00
2019-05-06T04:48:43.352Z,5.20
2019-05-06T04:51:13.592Z,5.30
2019-05-06T04:53:44.017Z,5.30
2019-05-06T04:56:14.460Z,5.50
2019-05-06T04:58:43.328Z,5.50
2019-05-06T05:01:15.482Z,5.70
2019-05-06T05:03:42.812Z,5.80
2019-05-06T05:06:13.605Z,5.80
2019-05-06T05:08:42.772Z,5.90
2019-05-06T05:11:16.109Z,5.80
2019-05-06T05:13:49.189Z,5.80
2019-05-06T05:16:19.477Z,5.80
2019-05-06T05:18:53.062Z,5.80
2019-05-06T05:21:22.929Z,5.90
2019-05-06T05:23:52.325Z,5.80
2019-05-06T05:26:22.569Z,5.80
2019-05-06T05:28:53.115Z,5.80
2019-05-06T05:31:23.014Z,5.90
2019-05-06T05:33:52.650Z,6.00
2019-05-06T05:36:23.057Z,6.20
2019-05-06T05:38:52.205Z,6.20
2019-05-06T05:41:23.185Z,6.00
2019-05-06T05:43:53.074Z,6.10
2019-05-06T05:46:21.853Z,6.10
2019-05-06T05:48:58.331Z,6.20
2019-05-06T05:51:27.194Z,6.30
2019-05-06T05:53:55.994Z,6.50
2019-05-06T05:56:24.484Z,6.60
2019-05-06T05:58:53.535Z,6.70
2019-05-06T06:01:23.662Z,6.80
2019-05-06T06:03:52.760Z,6.70
2019-05-06T06:06:22.311Z,6.80
2019-05-06T06:08:52.315Z,6.80
2019-05-06T06:11:23.180Z,6.90
2019-05-06T06:13:52.292Z,6.90
2019-05-06T06:16:39.398Z,6.90
2019-05-06T06:19:09.871Z,6.90
2019-05-06T06:21:40.058Z,7.00
2019-05-06T06:24:23.411Z,7.00
2019-05-06T06:26:52.187Z,7.10
2019-05-06T06:29:22.825Z,7.10
2019-05-06T06:31:53.056Z,7.20
2019-05-06T06:34:40.114Z,7.30
2019-05-06T06:37:19.547Z,7.30
2019-05-06T06:39:49.710Z,7.50
2019-05-06T06:42:18.241Z,7.50
2019-05-06T06:44:47.096Z,7.60
2019-05-06T06:47:15.583Z,7.70
2019-05-06T06:49:44.523Z,7.80
2019-05-06T06:52:14.962Z,7.90
2019-05-06T06:54:43.956Z,7.90
2019-05-06T06:57:17.656Z,7.90
2019-05-06T06:59:49.208Z,7.90
2019-05-06T07:02:34.103Z,7.90
2019-05-06T07:05:05.797Z,8.00
2019-05-06T07:07:43.585Z,8.10
2019-05-06T07:10:08.572Z,8.10
2019-05-06T07:12:37.263Z,7.90
2019-05-06T07:15:07.187Z,7.80
2019-05-06T07:17:35.613Z,7.80
2019-05-06T07:20:09.443Z,7.80
2019-05-06T07:22:37.855Z,7.80
2019-05-06T07:25:08.725Z,7.90
2019-05-06T07:27:37.139Z,8.00
2019-05-06T07:30:07.641Z,8.00
2019-05-06T07:32:36.047Z,8.00
2019-05-06T07:35:06.294Z,8.10
2019-05-06T07:37:35.121Z,8.20
2019-05-06T07:40:04.931Z,8.30
2019-05-06T07:42:37.381Z,8.50
2019-05-06T07:45:08.977Z,8.60
2019-05-06T07:47:39.047Z,8.70
2019-05-06T07:50:07.829Z,8.80
2019-05-06T07:52:36.528Z,8.80
2019-05-06T07:55:05.695Z,9.00
2019-05-06T07:57:34.677Z,9.20
2019-05-06T08:00:04.477Z,9.60
2019-05-06T08:02:32.994Z,9.60
2019-05-06T08:05:02.583Z,9.60
2019-05-06T08:07:33.284Z,9.50
2019-05-06T08:10:02.306Z,9.40
2019-05-06T08:12:32.629Z,9.60
2019-05-06T08:15:04.458Z,9.70
2019-05-06T08:17:33.271Z,9.70
2019-05-06T08:20:02.614Z,9.80
2019-05-06T08:22:44.965Z,9.80
2019-05-06T08:25:13.779Z,10.00
2019-05-06T08:27:42.736Z,10.10
2019-05-06T08:30:12.954Z,10.20
2019-05-06T08:32:42.488Z,10.30
2019-05-06T08:35:13.401Z,10.60
2019-05-06T08:37:43.113Z,10.80
2019-05-06T08:40:12.284Z,11.10
2019-05-06T08:42:42.612Z,11.30
2019-05-06T08:45:12.810Z,11.40
2019-05-06T08:47:42.605Z,11.40
2019-05-06T08:50:13.369Z,11.40
2019-05-06T08:52:59.976Z,11.30
2019-05-06T08:55:42.217Z,11.20
2019-05-06T08:58:10.909Z,11.00
2019-05-06T09:00:50.147Z,11.00
2019-05-06T09:03:18.959Z,11.00
2019-05-06T09:05:53.682Z,11.00
2019-05-06T09:08:24.132Z,10.90
2019-05-06T09:10:53.467Z,11.00
2019-05-06T09:13:23.187Z,11.00
2019-05-06T09:15:52.549Z,11.10
2019-05-06T09:18:23.844Z,11.20
2019-05-06T09:20:53.508Z,11.20
2019-05-06T09:23:22.638Z,11.30
2019-05-06T09:25:53.143Z,11.50
2019-05-06T09:28:23.586Z,11.70
2019-05-06T09:30:54.112Z,12.00
2019-05-06T09:33:35.908Z,12.00
2019-05-06T09:36:04.395Z,11.90
2019-05-06T09:38:33.189Z,11.90
2019-05-06T09:41:05.073Z,11.90
2019-05-06T09:43:32.792Z,12.10
2019-05-06T09:46:02.288Z,12.20
2019-05-06T09:48:33.156Z,12.30
2019-05-06T09:51:02.886Z,12.40
2019-05-06T09:53:36.117Z,12.60
2019-05-06T09:56:18.631Z,12.90
2019-05-06T09:58:47.069Z,13.10
2019-05-06T10:01:16.617Z,13.00
2019-05-06T10:03:45.139Z,13.00
2019-05-06T10:06:13.750Z,13.00
2019-05-06T10:08:42.570Z,13.00
2019-05-06T10:11:11.251Z,13.00
2019-05-06T10:13:40.154Z,13.10
2019-05-06T10:16:08.836Z,13.10
2019-05-06T10:18:37.344Z,13.00
2019-05-06T10:21:06.022Z,13.10
2019-05-06T10:23:34.586Z,13.10
2019-05-06T10:26:04.522Z,13.20
2019-05-06T10:28:34.956Z,13.20
2019-05-06T10:31:05.332Z,13.00
2019-05-06T10:33:34.644Z,13.00
2019-05-06T10:36:04.432Z,13.20
2019-05-06T10:38:48.140Z,13.40
2019-05-06T10:41:22.527Z,13.60
2019-05-06T10:43:56.826Z,13.70
2019-05-06T10:46:25.266Z,13.60
2019-05-06T10:48:53.709Z,13.70
2019-05-06T10:51:39.272Z,13.90
2019-05-06T10:54:08.186Z,13.90
2019-05-06T10:56:52.481Z,14.10
2019-05-06T10:59:12.852Z,14.20
2019-05-06T11:01:42.872Z,14.00
2019-05-06T11:04:11.314Z,13.70
2019-05-06T11:06:40.105Z,13.60
2019-05-06T11:09:10.060Z,13.70
2019-05-06T11:11:39.036Z,13.70
2019-05-06T11:14:07.662Z,13.80
2019-05-06T11:16:36.107Z,13.70
2019-05-06T11:19:05.201Z,13.50
2019-05-06T11:21:33.776Z,13.20
2019-05-06T11:24:05.963Z,13.00
2019-05-06T11:26:32.342Z,12.90
2019-05-06T11:29:05.166Z,12.90
2019-05-06T11:31:37.564Z,12.70
2019-05-06T11:34:12.593Z,12.80
2019-05-06T11:36:43.028Z,12.90
2019-05-06T11:39:14.023Z,13.30
2019-05-06T11:42:01.073Z,13.70
2019-05-06T11:44:12.742Z,14.10
2019-05-06T11:46:42.915Z,14.30
2019-05-06T11:49:12.473Z,14.40
2019-05-06T11:51:43.536Z,14.50
2019-05-06T11:54:17.435Z,14.30
2019-05-06T11:56:51.288Z,14.50
2019-05-06T11:59:13.033Z,14.50
2019-05-06T12:01:48.926Z,14.40
2019-05-06T12:04:17.738Z,14.40
2019-05-06T12:06:46.222Z,14.40
2019-05-06T12:09:16.953Z,14.50
2019-05-06T12:11:45.159Z,14.80
2019-05-06T12:14:13.688Z,14.90
2019-05-06T12:16:42.236Z,14.40
2019-05-06T12:19:12.884Z,14.60
2019-05-06T12:21:43.036Z,15.00
2019-05-06T12:24:12.243Z,15.20
2019-05-06T12:26:42.873Z,15.20
2019-05-06T12:29:12.664Z,15.10
2019-05-06T12:31:42.179Z,15.30
2019-05-06T12:34:12.433Z,15.20
2019-05-06T12:36:42.744Z,15.00
2019-05-06T12:39:18.498Z,15.10
2019-05-06T12:41:50.513Z,15.40
2019-05-06T12:44:19.195Z,15.20
2019-05-06T12:46:59.979Z,15.20
2019-05-06T12:49:28.663Z,15.60
2019-05-06T12:51:57.389Z,15.80
2019-05-06T12:54:25.818Z,15.70
2019-05-06T12:56:55.841Z,15.50
2019-05-06T12:59:24.607Z,15.20
2019-05-06T13:01:54.182Z,15.00
2019-05-06T13:04:44.534Z,15.20
2019-05-06T13:06:53.171Z,15.00
2019-05-06T13:09:22.550Z,15.10
2019-05-06T13:11:52.371Z,15.40
2019-05-06T13:14:22.372Z,16.20
2019-05-06T13:16:53.163Z,16.60
2019-05-06T13:19:22.871Z,16.60
2019-05-06T13:21:51.809Z,16.00
2019-05-06T13:24:22.673Z,16.10
2019-05-06T13:26:52.616Z,16.50
2019-05-06T13:29:23.359Z,17.00
2019-05-06T13:31:52.986Z,16.60
2019-05-06T13:37:08.492Z,16.90
2019-05-06T13:39:37.441Z,17.20
2019-05-06T13:42:05.913Z,16.50
2019-05-06T13:44:34.319Z,16.10
2019-05-06T13:47:03.155Z,15.80
2019-05-06T13:49:33.321Z,16.20
2019-05-06T13:52:04.379Z,16.30
2019-05-06T13:54:33.297Z,16.00
2019-05-06T13:57:03.052Z,15.90
2019-05-06T13:59:34.704Z,15.70
2019-05-06T14:02:08.138Z,15.50
2019-05-06T14:04:37.321Z,15.30
2019-05-06T14:07:07.438Z,15.10
2019-05-06T14:09:40.350Z,15.20
2019-05-06T14:12:06.039Z,15.30
2019-05-06T14:14:34.538Z,15.10
2019-05-06T14:17:02.981Z,14.70
2019-05-06T14:19:33.213Z,14.50
2019-05-06T14:22:03.002Z,14.30
2019-05-06T14:24:32.766Z,14.30
2019-05-06T14:27:03.054Z,14.20
2019-05-06T14:29:37.682Z,14.30
2019-05-06T14:32:06.121Z,14.40
2019-05-06T14:34:34.873Z,14.40
2019-05-06T14:37:03.290Z,14.60
2019-05-06T14:39:48.616Z,14.60
2019-05-06T14:42:04.341Z,14.70
2019-05-06T14:44:33.334Z,15.00
2019-05-06T14:47:03.397Z,15.30
2019-05-06T14:49:32.539Z,15.40
2019-05-06T14:52:02.717Z,15.20
2019-05-06T14:54:33.050Z,15.00
2019-05-06T14:57:06.335Z,15.00
2019-05-06T14:59:34.743Z,14.90
2019-05-06T15:02:03.183Z,15.00
2019-05-06T15:04:32.556Z,14.90
2019-05-06T15:07:02.141Z,14.70
2019-05-06T15:09:32.892Z,14.50
2019-05-06T15:12:02.295Z,14.50
2019-05-06T15:14:33.111Z,14.50
2019-05-06T15:17:02.230Z,14.30
2019-05-06T15:19:30.897Z,14.40
2019-05-06T15:21:59.576Z,14.40
2019-05-06T15:24:28.082Z,14.00
2019-05-06T15:26:56.510Z,13.70
2019-05-06T15:29:24.937Z,13.70
2019-05-06T15:31:54.984Z,13.70
2019-05-06T15:34:25.078Z,13.70
2019-05-06T15:36:55.381Z,13.70
2019-05-06T15:39:23.844Z,13.70
2019-05-06T15:41:52.326Z,13.60
2019-05-06T15:44:23.113Z,13.70
2019-05-06T15:46:52.712Z,13.70
2019-05-06T15:49:22.336Z,13.50
2019-05-06T15:51:52.364Z,13.40
2019-05-06T15:54:22.648Z,13.40
2019-05-06T15:56:53.234Z,13.30
2019-05-06T15:59:22.905Z,13.30
2019-05-06T16:01:53.121Z,13.30
2019-05-06T16:04:22.901Z,13.10
2019-05-06T16:06:52.936Z,13.10
2019-05-06T16:09:23.445Z,13.10
2019-05-06T16:11:53.401Z,13.10
2019-05-06T16:14:22.966Z,13.10
2019-05-06T16:16:52.754Z,13.20
2019-05-06T16:19:22.882Z,13.10
2019-05-06T16:21:52.386Z,13.10
2019-05-06T16:24:25.831Z,13.00
2019-05-06T16:26:54.255Z,13.00
2019-05-06T16:29:24.661Z,12.90
2019-05-06T16:31:53.067Z,12.90
2019-05-06T16:34:22.769Z,12.70
2019-05-06T16:36:51.552Z,12.60
2019-05-06T16:39:20.034Z,12.50
2019-05-06T16:41:48.771Z,12.50
2019-05-06T16:44:17.255Z,12.50
2019-05-06T16:46:45.691Z,12.50
2019-05-06T16:49:14.484Z,12.20
2019-05-06T16:51:44.139Z,12.10
2019-05-06T16:54:12.878Z,12.00
2019-05-06T16:56:45.689Z,11.80
2019-05-06T16:59:14.523Z,11.70
2019-05-06T17:01:44.964Z,11.70
2019-05-06T17:04:15.036Z,11.80
2019-05-06T17:06:48.192Z,11.80
2019-05-06T17:09:21.228Z,11.80
2019-05-06T17:11:47.191Z,11.90
2019-05-06T17:14:15.642Z,11.90
2019-05-06T17:16:44.084Z,11.80
2019-05-06T17:19:12.878Z,11.80
2019-05-06T17:21:42.367Z,11.60
2019-05-06T17:24:12.890Z,11.60
2019-05-06T17:26:42.614Z,11.50
2019-05-06T17:29:15.662Z,11.60
2019-05-06T17:31:45.809Z,11.80
2019-05-06T17:34:27.729Z,11.90
2019-05-06T17:36:58.123Z,12.10
2019-05-06T17:39:26.539Z,12.30
2019-05-06T17:41:54.961Z,12.40
2019-05-06T17:44:24.437Z,12.50
2019-05-06T17:46:54.636Z,12.70
2019-05-06T17:49:33.640Z,12.80
2019-05-06T17:52:07.060Z,12.90
2019-05-06T17:54:35.528Z,13.00
2019-05-06T17:57:04.807Z,13.30
2019-05-06T17:59:35.571Z,13.30
2019-05-06T18:02:10.949Z,13.40
2019-05-06T18:04:39.478Z,13.40
2019-05-06T18:07:07.920Z,13.40
2019-05-06T18:09:36.352Z,13.40
2019-05-06T18:12:04.908Z,13.40
2019-05-06T18:14:33.817Z,13.40
2019-05-06T18:17:03.702Z,13.30
2019-05-06T18:19:33.628Z,13.20
2019-05-06T18:22:02.615Z,13.10
2019-05-06T18:24:33.304Z,12.90
2019-05-06T18:27:02.683Z,12.80
2019-05-06T18:29:33.422Z,12.70
2019-05-06T18:32:03.510Z,12.50
2019-05-06T18:34:32.592Z,12.40
2019-05-06T18:37:03.243Z,12.40
2019-05-06T18:39:33.746Z,12.20
2019-05-06T18:42:16.006Z,12.10
2019-05-06T18:44:33.391Z,12.00
2019-05-06T18:47:02.760Z,11.80
2019-05-06T18:49:33.697Z,11.80
2019-05-06T18:52:02.118Z,11.80
2019-05-06T18:54:33.197Z,11.70
2019-05-06T18:57:04.345Z,11.70
2019-05-06T18:59:32.991Z,11.70
2019-05-06T19:02:02.134Z,11.50
2019-05-06T19:04:33.494Z,11.40
2019-05-06T19:07:10.662Z,11.20
2019-05-06T19:09:34.535Z,11.10
2019-05-06T19:12:03.519Z,11.10
2019-05-06T19:14:33.043Z,11.00
2019-05-06T19:17:02.724Z,11.00
2019-05-06T19:19:34.161Z,10.90
2019-05-06T19:22:02.877Z,10.80
2019-05-06T19:24:33.492Z,10.80
2019-05-06T19:27:02.155Z,10.60
2019-05-06T19:29:32.569Z,10.60
2019-05-06T19:32:02.789Z,10.60
2019-05-06T19:34:34.572Z,10.60
2019-05-06T19:37:02.412Z,10.50
2019-05-06T19:39:32.603Z,10.40
2019-05-06T19:42:02.888Z,10.40
2019-05-06T19:44:31.584Z,10.00
2019-05-06T19:47:02.355Z,9.90
2019-05-06T19:49:30.226Z,10.00
2019-05-06T19:51:59.027Z,10.00
2019-05-06T19:54:27.476Z,10.00
2019-05-06T19:56:56.225Z,10.10
2019-05-06T19:59:24.643Z,10.10
2019-05-06T20:01:53.054Z,10.00
2019-05-06T20:04:22.724Z,9.90
2019-05-06T20:07:02.553Z,10.00
2019-05-06T20:09:36.205Z,10.00
2019-05-06T20:12:09.154Z,10.00
2019-05-06T20:14:37.773Z,10.00
2019-05-06T20:17:06.498Z,10.10
2019-05-06T20:19:34.907Z,10.20
2019-05-06T20:22:03.798Z,10.10
2019-05-06T20:24:33.259Z,10.20
2019-05-06T20:27:02.460Z,10.20
2019-05-06T20:29:32.964Z,10.10
2019-05-06T20:32:01.547Z,10.10
2019-05-06T20:34:31.969Z,10.10
2019-05-06T20:37:02.081Z,10.20
2019-05-06T20:39:32.246Z,10.30
2019-05-06T20:42:02.906Z,10.30
2019-05-06T20:44:32.475Z,10.30
2019-05-06T20:47:03.146Z,10.40
2019-05-06T20:49:33.144Z,10.40
2019-05-06T20:52:01.898Z,10.50
2019-05-06T20:54:32.421Z,10.50
2019-05-06T20:57:02.486Z,10.50
2019-05-06T20:59:32.220Z,10.40
2019-05-06T21:02:02.954Z,10.40
2019-05-06T21:04:32.448Z,10.40
2019-05-06T21:07:02.759Z,10.30
2019-05-06T21:09:32.117Z,10.30
2019-05-06T21:12:00.668Z,10.30
2019-05-06T21:14:29.092Z,10.40
2019-05-06T21:16:57.509Z,10.40
2019-05-06T21:19:25.942Z,10.40
2019-05-06T21:21:54.372Z,10.40
2019-05-06T21:24:22.809Z,10.30
2019-05-06T21:26:53.111Z,10.30
2019-05-06T21:29:23.188Z,10.30
2019-05-06T21:31:53.036Z,10.30
2019-05-06T21:34:22.342Z,10.20
2019-05-06T21:36:53.087Z,10.20
2019-05-06T21:39:22.430Z,10.10
2019-05-06T21:41:52.160Z,10.10
2019-05-06T21:44:22.842Z,9.90
2019-05-06T21:46:51.048Z,9.90
2019-05-06T21:49:19.538Z,9.90
2019-05-06T21:51:47.985Z,9.80
2019-05-06T21:54:16.777Z,9.80
2019-05-06T21:56:45.201Z,9.80
2019-05-06T21:59:13.957Z,9.80
2019-05-06T22:01:43.165Z,9.90
2019-05-06T22:04:12.853Z,9.90
2019-05-06T22:06:42.842Z,9.90
2019-05-06T22:09:12.646Z,9.80
2019-05-06T22:11:42.396Z,9.80
2019-05-06T22:14:12.240Z,9.60
2019-05-06T22:16:43.512Z,9.70
2019-05-06T22:19:12.135Z,9.70
2019-05-06T22:21:59.021Z,9.70
2019-05-06T22:24:44.104Z,9.60
2019-05-06T22:27:12.834Z,9.50
2019-05-06T22:29:42.695Z,9.50
2019-05-06T22:32:11.905Z,9.40
2019-05-06T22:34:42.488Z,9.30
2019-05-06T22:37:12.591Z,9.30
2019-05-06T22:39:43.596Z,9.40
2019-05-06T22:42:11.691Z,9.40
2019-05-06T22:44:40.134Z,9.50
2019-05-06T22:47:08.578Z,9.50
2019-05-06T22:49:37.048Z,9.30
2019-05-06T22:52:05.511Z,9.30
2019-05-06T22:54:33.925Z,9.30
2019-05-06T22:57:02.476Z,9.20
2019-05-06T22:59:32.841Z,9.20
2019-05-06T23:02:14.409Z,9.20
2019-05-06T23:04:47.179Z,9.10
2019-05-06T23:07:15.607Z,9.20
2019-05-06T23:09:44.065Z,9.20
2019-05-06T23:12:12.495Z,9.20
2019-05-06T23:14:41.964Z,9.10
2019-05-06T23:17:12.695Z,9.20
2019-05-06T23:19:42.869Z,9.20
2019-05-06T23:22:12.005Z,9.20
2019-05-06T23:24:40.815Z,9.20
2019-05-06T23:27:09.317Z,9.30
2019-05-06T23:29:37.754Z,9.30
2019-05-06T23:32:06.370Z,9.30
2019-05-06T23:34:34.821Z,9.10
2019-05-06T23:37:09.577Z,9.20
2019-05-06T23:40:15.905Z,9.10
2019-05-06T23:43:22.172Z,9.10
2019-05-06T23:46:27.408Z,9.10
2019-05-06T23:49:32.792Z,9.10
2019-05-06T23:52:37.634Z,8.90
2019-05-06T23:55:44.168Z,8.70
2019-05-06T23:58:14.558Z,8.70
